Time;durP1;ratioP1;P1;durP2;ratioP2;P2;SDS_P1;SDS_P2;PMS_P1;PMS_P2;Temp;Humidity;BMP_temperature;BMP_pressure;BME280_temperature;BME280_humidity;BME280_pressure;Samples;Min_cycle;Max_cycle;Signal;HPM_P1;HPM_P2
2023/07/30 00:01:34;;;;;;;4.37;3.53;;;;;;;19.17;76.94;95840.06;5047651;28;20171;-70
2023/07/30 00:03:59;;;;;;;3.90;3.50;;;;;;;19.11;77.03;95841.47;5047557;28;20456;-70
2023/07/30 00:06:25;;;;;;;8.70;3.93;;;;;;;19.11;76.70;95838.81;5047870;28;20191;-70
2023/07/30 00:08:50;;;;;;;4.67;4.10;;;;;;;19.03;77.60;95842.09;5047461;28;20507;-69
2023/07/30 00:11:16;;;;;;;4.53;3.60;;;;;;;19.02;77.30;95842.25;5047936;28;20561;-70
2023/07/30 00:13:41;;;;;;;6.20;3.90;;;;;;;18.95;77.74;95841.94;5047736;28;20155;-69
2023/07/30 00:16:07;;;;;;;7.83;4.97;;;;;;;18.98;78.16;95847.00;5061840;28;20194;-70
2023/07/30 00:18:32;;;;;;;4.90;3.90;;;;;;;19.07;77.52;95849.84;5067618;28;20178;-70
2023/07/30 00:20:57;;;;;;;5.30;4.40;;;;;;;19.06;77.71;95837.50;5067392;28;20619;-68
2023/07/30 00:23:23;;;;;;;4.30;3.90;;;;;;;19.04;77.32;95843.81;5067746;28;20189;-70
2023/07/30 00:25:48;;;;;;;4.93;3.67;;;;;;;19.00;77.39;95849.53;5064809;28;20194;-68
2023/07/30 00:28:13;;;;;;;4.47;4.00;;;;;;;19.00;77.17;95854.84;5062329;28;20555;-71
2023/07/30 00:30:39;;;;;;;5.43;4.83;;;;;;;19.08;76.97;95849.69;5051094;28;20266;-71
2023/07/30 00:33:04;;;;;;;6.73;3.50;;;;;;;19.17;76.55;95840.06;5059928;28;20181;-71
2023/07/30 00:35:29;;;;;;;5.63;4.53;;;;;;;19.03;77.02;95849.25;5047378;28;20205;-71
2023/07/30 00:37:55;;;;;;;4.83;3.83;;;;;;;18.99;77.01;95845.16;5054963;28;20170;-70
2023/07/30 00:40:23;;;;;;;7.90;3.33;;;;;;;19.02;77.04;95852.91;5067291;28;20271;-72
2023/07/30 00:42:49;;;;;;;6.13;3.80;;;;;;;19.06;76.85;95853.47;5067438;28;20305;-71
2023/07/30 00:45:14;;;;;;;4.20;3.70;;;;;;;19.03;76.29;95854.56;5071494;28;20573;-69
2023/07/30 00:47:41;;;;;;;4.30;3.77;;;;;;;19.04;76.38;95857.09;5071280;28;20585;-69
2023/07/30 00:50:08;;;;;;;3.40;3.10;;;;;;;19.07;76.12;95856.00;5062945;28;20203;-68
2023/07/30 00:52:33;;;;;;;3.43;2.93;;;;;;;19.04;75.99;95866.91;5051085;28;20401;-70
2023/07/30 00:55:02;;;;;;;5.80;3.30;;;;;;;19.09;75.83;95871.84;5050854;28;20429;-69
2023/07/30 00:57:28;;;;;;;4.60;3.27;;;;;;;19.05;76.14;95860.59;5051064;28;20258;-70
2023/07/30 00:59:54;;;;;;;4.30;3.70;;;;;;;19.08;75.96;95855.00;5050779;28;20405;-70
2023/07/30 01:02:20;;;;;;;4.90;3.83;;;;;;;19.01;75.87;95852.03;5050679;28;20694;-71
2023/07/30 01:04:46;;;;;;;6.27;4.77;;;;;;;18.95;76.72;95863.22;5050707;28;20472;-70
2023/07/30 01:07:11;;;;;;;5.57;4.07;;;;;;;18.95;76.17;95873.84;5050784;28;20440;-69
2023/07/30 01:09:36;;;;;;;4.90;3.77;;;;;;;18.90;76.88;95875.19;5050255;28;20170;-70
2023/07/30 01:12:03;;;;;;;3.80;3.10;;;;;;;18.94;76.49;95887.25;5050493;28;20174;-70
2023/07/30 01:14:29;;;;;;;4.40;3.73;;;;;;;19.02;76.88;95885.66;5050543;28;20167;-70
2023/07/30 01:16:55;;;;;;;7.10;3.70;;;;;;;19.06;76.52;95888.03;5050856;28;20409;-72
2023/07/30 01:19:20;;;;;;;8.60;3.60;;;;;;;18.76;77.73;95887.88;5050224;28;20424;-68
2023/07/30 01:21:46;;;;;;;6.30;3.90;;;;;;;18.86;77.48;95900.38;5050397;28;20843;-70
2023/07/30 01:24:11;;;;;;;4.97;3.20;;;;;;;18.74;77.96;95892.44;5050473;28;20268;-70
2023/07/30 01:26:49;;;;;;;5.73;3.57;;;;;;;18.73;77.93;95896.09;5057470;28;20186;-68
2023/07/30 01:29:22;;;;;;;3.67;3.20;;;;;;;18.72;78.15;95899.69;5070065;28;20539;-71
2023/07/30 01:31:54;;;;;;;4.40;3.73;;;;;;;18.50;78.91;95899.84;5050711;28;21136;-69
2023/07/30 01:34:20;;;;;;;4.60;3.87;;;;;;;18.56;78.81;95909.94;5050080;28;20410;-70
2023/07/30 01:36:48;;;;;;;6.43;3.10;;;;;;;18.41;79.42;95904.09;5051829;28;20425;-71
2023/07/30 01:39:15;;;;;;;3.73;3.33;;;;;;;18.17;80.79;95905.16;5057997;28;20474;-71
2023/07/30 01:41:40;;;;;;;7.17;3.80;;;;;;;18.44;79.48;95909.13;5060084;28;20919;-70
2023/07/30 01:44:06;;;;;;;6.80;4.43;;;;;;;18.53;78.97;95916.34;5063270;28;20468;-70
2023/07/30 01:46:31;;;;;;;3.80;3.40;;;;;;;18.41;79.30;95917.38;5054295;28;20711;-69
2023/07/30 01:48:56;;;;;;;4.07;3.40;;;;;;;18.48;79.06;95913.25;5070714;28;20251;-70
2023/07/30 01:51:22;;;;;;;9.10;3.90;;;;;;;18.39;79.29;95909.53;5073002;28;20307;-68
2023/07/30 01:53:47;;;;;;;5.87;4.17;;;;;;;18.45;78.47;95912.63;5072447;28;20174;-69
2023/07/30 01:56:12;;;;;;;4.57;3.90;;;;;;;18.47;78.30;95906.22;5070455;28;21005;-70
2023/07/30 01:58:38;;;;;;;9.53;3.83;;;;;;;18.58;77.74;95900.03;5070708;28;20181;-69
2023/07/30 02:01:03;;;;;;;3.87;3.50;;;;;;;18.52;77.69;95896.06;5055060;28;20293;-69
2023/07/30 02:03:29;;;;;;;4.70;3.93;;;;;;;18.52;77.42;95896.06;5049931;28;20282;-69
2023/07/30 02:05:54;;;;;;;4.00;3.60;;;;;;;18.55;77.70;95894.97;5049776;28;20553;-67
2023/07/30 02:08:19;;;;;;;4.47;3.53;;;;;;;18.54;77.55;95896.78;5049575;28;20174;-69
2023/07/30 02:10:54;;;;;;;4.60;3.63;;;;;;;18.20;79.08;95894.25;5049344;28;20216;-70
2023/07/30 02:13:20;;;;;;;6.60;3.97;;;;;;;18.31;78.87;95895.22;5049661;28;20250;-70
2023/07/30 02:15:45;;;;;;;6.53;3.97;;;;;;;18.39;78.31;95896.25;5049572;28;20509;-71
2023/07/30 02:18:10;;;;;;;5.80;4.00;;;;;;;18.40;78.09;95900.59;5049566;28;20190;-69
2023/07/30 02:20:36;;;;;;;5.40;3.67;;;;;;;18.39;78.43;95898.88;5049149;28;20224;-69
2023/07/30 02:23:01;;;;;;;4.57;3.60;;;;;;;18.46;77.69;95899.22;5056394;28;20199;-69
2023/07/30 02:25:26;;;;;;;7.70;4.20;;;;;;;18.47;77.38;95898.25;5065256;28;20183;-70
2023/07/30 02:27:52;;;;;;;4.47;3.40;;;;;;;18.47;77.18;95890.28;5056488;28;20174;-70
2023/07/30 02:30:17;;;;;;;5.47;3.53;;;;;;;18.55;77.18;95893.16;5061108;28;20584;-69
2023/07/30 02:32:43;;;;;;;4.90;3.60;;;;;;;18.51;77.01;95880.25;5070180;28;20173;-68
2023/07/30 02:35:08;;;;;;;4.90;3.70;;;;;;;18.40;77.22;95879.34;5069280;28;20510;-69
2023/07/30 02:37:34;;;;;;;6.43;3.60;;;;;;;18.47;77.03;95874.34;5054906;28;20265;-69
2023/07/30 02:39:59;;;;;;;4.90;4.00;;;;;;;18.34;77.52;95882.50;5048933;28;20186;-69
2023/07/30 02:42:24;;;;;;;4.33;3.67;;;;;;;18.43;77.39;95888.88;5049500;28;20210;-68
2023/07/30 02:44:53;;;;;;;4.93;4.27;;;;;;;18.32;77.78;95889.75;5060557;28;20194;-70
2023/07/30 02:47:18;;;;;;;4.50;4.00;;;;;;;18.19;78.15;95887.28;5057960;28;20183;-67
2023/07/30 02:49:44;;;;;;;7.60;4.03;;;;;;;18.30;78.00;95886.38;5048672;28;20448;-69
2023/07/30 02:52:09;;;;;;;5.87;4.43;;;;;;;18.36;77.67;95887.69;5066374;28;20175;-71
2023/07/30 02:54:35;;;;;;;5.23;3.97;;;;;;;18.27;77.76;95891.94;5068710;28;20176;-70
2023/07/30 02:57:00;;;;;;;5.57;4.37;;;;;;;18.28;77.51;95892.78;5068568;28;20158;-69
2023/07/30 02:59:25;;;;;;;6.40;3.93;;;;;;;18.35;77.77;95896.63;5068489;28;20205;-70
2023/07/30 03:01:51;;;;;;;4.77;4.03;;;;;;;18.19;78.34;95899.72;5069012;28;20182;-69
2023/07/30 03:04:16;;;;;;;10.10;4.17;;;;;;;18.22;78.46;95899.47;5057833;28;20233;-69
2023/07/30 03:06:41;;;;;;;5.23;4.07;;;;;;;18.23;78.11;95902.94;5051578;28;20595;-69
2023/07/30 03:09:07;;;;;;;7.10;3.60;;;;;;;18.19;78.30;95907.69;5048679;28;20171;-70
2023/07/30 03:11:32;;;;;;;7.30;4.00;;;;;;;18.22;78.06;95902.13;5048437;28;20186;-69
2023/07/30 03:13:58;;;;;;;6.63;3.90;;;;;;;18.22;78.18;95906.59;5048694;28;20249;-69
2023/07/30 03:16:23;;;;;;;6.13;3.90;;;;;;;18.24;77.90;95916.13;5048607;28;20667;-71
2023/07/30 03:18:48;;;;;;;5.40;3.60;;;;;;;18.08;78.43;95921.00;5048014;28;20222;-69
2023/07/30 03:21:14;;;;;;;5.33;4.37;;;;;;;17.99;79.13;95922.56;5048277;28;20191;-70
2023/07/30 03:23:40;;;;;;;13.57;5.00;;;;;;;18.10;78.51;95924.38;5048369;28;20830;-70
2023/07/30 03:26:06;;;;;;;7.13;4.33;;;;;;;18.12;78.19;95907.34;5048041;28;20206;-68
2023/07/30 03:28:32;;;;;;;7.90;4.30;;;;;;;18.06;78.29;95912.31;5047974;28;20771;-69
2023/07/30 03:30:57;;;;;;;6.53;4.70;;;;;;;18.10;78.00;95908.44;5061513;28;20227;-69
2023/07/30 03:33:22;;;;;;;36.73;6.30;;;;;;;18.09;78.17;95914.69;5068264;28;20170;-68
2023/07/30 03:35:48;;;;;;;10.97;4.80;;;;;;;18.09;78.08;95912.03;5067974;28;20576;-68
2023/07/30 03:38:13;;;;;;;4.10;3.70;;;;;;;18.09;78.17;95912.88;5067625;28;20200;-69
2023/07/30 03:40:39;;;;;;;3.90;3.50;;;;;;;18.08;78.16;95910.38;5052068;28;20640;-68
2023/07/30 03:43:04;;;;;;;6.83;4.80;;;;;;;18.03;78.32;95909.91;5047785;28;20198;-67
2023/07/30 03:45:29;;;;;;;5.30;4.80;;;;;;;18.03;78.37;95904.59;5049881;28;20305;-69
2023/07/30 03:47:55;;;;;;;7.70;4.63;;;;;;;18.01;78.27;95909.19;5056561;28;20183;-68
2023/07/30 03:50:20;;;;;;;6.60;4.03;;;;;;;17.97;78.36;95909.41;5062729;28;20205;-69
2023/07/30 03:52:46;;;;;;;6.70;4.27;;;;;;;17.99;77.91;95909.31;5067020;28;20179;-73
2023/07/30 03:55:12;;;;;;;7.87;5.30;;;;;;;17.92;78.55;95903.63;5053658;28;20679;-69
2023/07/30 03:57:37;;;;;;;5.33;3.77;;;;;;;17.96;78.23;95915.72;5054033;28;20419;-69
2023/07/30 04:00:04;;;;;;;6.00;3.83;;;;;;;18.00;78.00;95913.66;5048034;28;20181;-66
2023/07/30 04:02:29;;;;;;;15.93;4.23;;;;;;;17.92;77.89;95924.88;5066464;28;20236;-68
2023/07/30 04:04:55;;;;;;;9.33;4.70;;;;;;;17.92;78.29;95926.69;5067656;28;21031;-69
2023/07/30 04:07:20;;;;;;;16.17;5.00;;;;;;;17.89;78.03;95925.13;5067691;28;20600;-71
2023/07/30 04:09:45;;;;;;;22.50;6.73;;;;;;;17.94;78.25;95928.25;5065883;28;20186;-72
2023/07/30 04:12:11;;;;;;;21.47;6.13;;;;;;;18.01;78.05;95936.56;5067693;28;20166;-70
2023/07/30 04:14:36;;;;;;;10.80;4.60;;;;;;;18.03;77.98;95934.66;5047531;28;20522;-70
2023/07/30 04:17:01;;;;;;;10.13;4.70;;;;;;;17.95;78.15;95929.09;5047642;28;20245;-71
2023/07/30 04:19:27;;;;;;;17.07;5.60;;;;;;;18.01;78.01;95933.91;5050080;28;20174;-69
2023/07/30 04:21:52;;;;;;;17.37;4.50;;;;;;;18.01;77.99;95949.00;5051510;28;20190;-70
2023/07/30 04:24:18;;;;;;;12.20;5.40;;;;;;;18.08;77.61;95952.84;5051631;28;20202;-68
2023/07/30 04:26:43;;;;;;;9.50;5.03;;;;;;;18.07;77.70;95954.69;5054822;28;20210;-69
2023/07/30 04:29:10;;;;;;;10.60;5.00;;;;;;;18.13;77.60;95958.63;5061264;28;20206;-69
2023/07/30 04:31:35;;;;;;;12.53;5.40;;;;;;;18.06;77.91;95955.63;5061733;28;20986;-69
2023/07/30 04:34:01;;;;;;;8.67;4.77;;;;;;;18.09;77.67;95963.34;5071396;28;20408;-71
2023/07/30 04:36:26;;;;;;;6.07;4.87;;;;;;;18.12;77.55;95968.41;5055297;28;20667;-68
2023/07/30 04:38:51;;;;;;;6.97;4.27;;;;;;;18.40;76.52;95966.16;5051351;28;20175;-71
2023/07/30 04:41:18;;;;;;;15.33;5.90;;;;;;;18.56;75.83;95955.94;5051484;28;20639;-69
2023/07/30 04:43:44;;;;;;;10.43;5.23;;;;;;;18.87;74.51;95947.25;5051233;28;20294;-70
2023/07/30 04:46:09;;;;;;;7.00;4.50;;;;;;;18.86;74.74;95953.56;5051584;28;21058;-69
2023/07/30 04:48:34;;;;;;;8.50;4.40;;;;;;;19.04;74.05;95957.31;5066792;28;20219;-69
2023/07/30 04:51:03;;;;;;;5.10;4.60;;;;;;;19.46;72.65;95947.47;5070561;28;20269;-74
2023/07/30 04:53:29;;;;;;;8.17;4.50;;;;;;;19.90;70.97;95946.41;5070920;28;20166;-71
2023/07/30 04:55:57;;;;;;;9.10;5.00;;;;;;;19.77;70.94;95954.59;5070990;28;20443;-70
2023/07/30 04:58:23;;;;;;;7.13;4.93;;;;;;;19.31;72.29;95963.91;5070856;28;20595;-70
2023/07/30 05:00:49;;;;;;;5.43;4.27;;;;;;;19.13;73.39;95963.66;5070692;28;20439;-71
2023/07/30 05:03:14;;;;;;;8.40;4.80;;;;;;;18.95;74.10;95961.59;5070924;28;20229;-71
2023/07/30 05:05:41;;;;;;;8.17;5.60;;;;;;;18.82;75.16;95958.28;5070883;28;20263;-71
2023/07/30 05:08:06;;;;;;;11.27;4.20;;;;;;;18.98;74.36;95964.00;5070536;28;20571;-70
2023/07/30 05:10:32;;;;;;;6.20;4.33;;;;;;;18.92;74.44;95958.34;5070509;28;20459;-70
2023/07/30 05:12:57;;;;;;;5.73;3.77;;;;;;;18.89;74.78;95961.25;5070480;28;20174;-70
2023/07/30 05:15:22;;;;;;;12.23;5.00;;;;;;;18.83;74.65;95971.44;5070886;28;20206;-70
2023/07/30 05:17:48;;;;;;;10.63;5.20;;;;;;;18.88;74.65;95967.56;5070469;28;20200;-69
2023/07/30 05:20:13;;;;;;;8.63;4.57;;;;;;;18.86;74.89;95969.50;5070056;28;20952;-71
2023/07/30 05:22:39;;;;;;;10.03;5.30;;;;;;;18.69;75.43;95962.91;5070454;28;20194;-70
2023/07/30 05:25:04;;;;;;;6.17;4.63;;;;;;;18.53;76.54;95958.03;5056285;28;20224;-70
2023/07/30 05:27:31;;;;;;;5.00;4.50;;;;;;;18.65;76.04;95959.66;5071996;28;20178;-70
2023/07/30 05:29:57;;;;;;;10.30;4.93;;;;;;;18.65;75.86;95964.97;5078157;28;20198;-70
2023/07/30 05:32:22;;;;;;;11.63;4.50;;;;;;;18.72;75.42;95963.50;5069200;28;20768;-71
2023/07/30 05:34:47;;;;;;;4.53;4.10;;;;;;;18.74;75.41;95966.03;5051589;28;20920;-71
2023/07/30 05:37:13;;;;;;;4.97;4.47;;;;;;;18.69;75.82;95969.06;5050605;28;20261;-69
2023/07/30 05:39:38;;;;;;;8.80;4.87;;;;;;;18.71;75.80;95972.44;5060787;28;20171;-71
2023/07/30 05:42:04;;;;;;;10.33;6.00;;;;;;;18.72;75.60;95960.84;5070665;28;20193;-70
2023/07/30 05:44:29;;;;;;;5.10;4.60;;;;;;;18.73;75.29;95954.56;5066496;28;20209;-71
2023/07/30 05:46:58;;;;;;;8.63;4.50;;;;;;;18.77;75.05;95956.00;5074326;28;20189;-73
2023/07/30 05:49:23;;;;;;;7.00;4.80;;;;;;;18.91;75.07;95969.97;5074449;28;20178;-67
2023/07/30 05:51:48;;;;;;;5.23;4.70;;;;;;;19.23;73.53;95969.91;5073793;28;20466;-68
2023/07/30 05:54:14;;;;;;;7.90;5.00;;;;;;;19.59;72.63;95967.69;5085720;28;20185;-69
2023/07/30 05:56:39;;;;;;;6.50;4.37;;;;;;;20.04;70.78;95968.16;5077645;28;20225;-71
2023/07/30 05:59:07;;;;;;;13.93;5.03;;;;;;;20.36;69.31;95975.09;5079550;28;20208;-70
2023/07/30 06:01:33;;;;;;;6.20;4.50;;;;;;;20.42;69.04;95963.88;5075999;28;20200;-70
2023/07/30 06:03:58;;;;;;;6.50;3.40;;;;;;;20.70;68.08;95974.75;5060950;28;20460;-68
2023/07/30 06:06:27;;;;;;;4.70;4.20;;;;;;;20.88;67.45;95975.72;5064050;28;20214;-69
2023/07/30 06:08:54;;;;;;;8.73;4.60;;;;;;;21.39;65.90;95978.16;5051534;28;20201;-69
2023/07/30 06:11:19;;;;;;;5.50;4.40;;;;;;;21.82;64.23;95968.78;5067287;28;20420;-69
2023/07/30 06:13:45;;;;;;;10.70;4.87;;;;;;;22.04;63.52;95968.41;5060362;28;21142;-69
2023/07/30 06:16:10;;;;;;;11.13;5.17;;;;;;;22.13;63.04;95972.81;5077287;28;20574;-69
2023/07/30 06:18:35;;;;;;;10.37;3.90;;;;;;;22.40;62.39;95969.31;5086185;28;20214;-69
2023/07/30 06:21:01;;;;;;;13.50;5.00;;;;;;;22.70;60.88;95966.44;5069230;28;20174;-71
2023/07/30 06:23:26;;;;;;;6.33;4.00;;;;;;;22.83;59.98;95967.72;5069538;28;20198;-70
2023/07/30 06:25:52;;;;;;;10.63;3.73;;;;;;;22.96;59.21;95967.34;5066381;28;20190;-70
2023/07/30 06:28:17;;;;;;;4.60;3.73;;;;;;;23.25;58.66;95966.25;5074287;28;20257;-70
2023/07/30 06:30:42;;;;;;;7.20;3.67;;;;;;;23.17;58.96;95963.50;5077707;28;20170;-68
2023/07/30 06:33:08;;;;;;;14.77;4.37;;;;;;;23.19;58.71;95959.69;5070108;28;20604;-69
2023/07/30 06:35:34;;;;;;;4.00;3.60;;;;;;;23.27;57.87;95963.41;5081835;28;20285;-70
2023/07/30 06:37:59;;;;;;;15.80;4.27;;;;;;;23.52;57.77;95956.38;5090342;28;20172;-71
2023/07/30 06:40:25;;;;;;;10.13;4.60;;;;;;;23.63;57.57;95965.00;5078673;28;20756;-70
2023/07/30 06:42:50;;;;;;;8.90;4.13;;;;;;;23.70;56.98;95961.69;5061040;28;20201;-71
2023/07/30 06:45:15;;;;;;;8.40;3.70;;;;;;;23.68;57.31;95956.47;5081941;28;20204;-71
2023/07/30 06:47:41;;;;;;;10.23;4.00;;;;;;;23.68;56.80;95957.31;5089787;28;20182;-71
2023/07/30 06:50:09;;;;;;;12.33;4.80;;;;;;;23.76;56.69;95964.56;5081508;28;20189;-72
2023/07/30 06:52:35;;;;;;;6.10;4.57;;;;;;;23.84;57.11;95966.47;5087095;28;20177;-71
2023/07/30 06:55:04;;;;;;;8.30;3.73;;;;;;;24.06;56.29;95970.41;5089552;28;20450;-71
2023/07/30 06:57:30;;;;;;;6.40;3.97;;;;;;;23.88;56.67;95965.13;5105158;28;20493;-72
2023/07/30 06:59:56;;;;;;;11.07;3.93;;;;;;;23.92;56.43;95973.72;5079465;28;20457;-69
2023/07/30 07:02:21;;;;;;;8.80;4.23;;;;;;;23.65;57.42;95979.06;5082955;28;20507;-71
2023/07/30 07:04:47;;;;;;;7.23;3.90;;;;;;;23.58;57.61;95979.88;5068678;28;20190;-70
2023/07/30 07:07:12;;;;;;;8.77;4.70;;;;;;;23.39;57.98;95988.97;5068813;28;20271;-70
2023/07/30 07:09:37;;;;;;;5.43;3.80;;;;;;;23.56;57.49;95993.41;5069133;28;20166;-72
2023/07/30 07:12:03;;;;;;;7.87;4.37;;;;;;;23.79;56.58;95991.06;5057626;28;20186;-71
2023/07/30 07:14:28;;;;;;;25.80;5.57;;;;;;;24.22;55.72;95981.22;5058203;28;20186;-72
2023/07/30 07:16:55;;;;;;;7.80;4.30;;;;;;;24.23;56.05;95977.50;5053013;28;20238;-72
2023/07/30 07:19:21;;;;;;;12.87;4.30;;;;;;;23.90;56.87;95991.78;5054546;28;20267;-71
2023/07/30 07:21:46;;;;;;;11.50;4.43;;;;;;;23.80;57.20;95991.91;5056097;28;20445;-70
2023/07/30 07:24:12;;;;;;;9.70;4.50;;;;;;;23.75;56.73;95995.06;5050398;28;20202;-71
2023/07/30 07:26:37;;;;;;;17.00;4.23;;;;;;;23.65;56.93;95986.28;5060956;28;20304;-70
2023/07/30 07:29:03;;;;;;;12.00;5.13;;;;;;;23.93;56.50;95992.31;5048651;28;20258;-70
2023/07/30 07:31:28;;;;;;;5.90;3.57;;;;;;;23.98;55.95;95987.31;5057491;28;20513;-70
2023/07/30 07:33:54;;;;;;;11.30;4.07;;;;;;;23.88;56.43;95984.75;5048133;28;20317;-70
2023/07/30 07:36:19;;;;;;;11.77;3.67;;;;;;;24.21;55.42;95984.03;5049037;28;20348;-70
2023/07/30 07:38:44;;;;;;;16.40;3.77;;;;;;;24.17;55.10;95991.59;5049562;28;20181;-70
2023/07/30 07:41:16;;;;;;;6.10;3.40;;;;;;;24.50;54.11;95991.72;5068695;28;21175;-70
2023/07/30 07:44:02;;;;;;;6.33;3.40;;;;;;;24.36;54.53;95989.66;5059074;28;20573;-73
2023/07/30 07:46:28;;;;;;;10.27;3.20;;;;;;;24.23;54.78;95993.59;5055824;28;20539;-71
2023/07/30 07:48:53;;;;;;;3.40;3.00;;;;;;;24.55;53.70;95999.28;5068267;28;20499;-71
2023/07/30 07:51:19;;;;;;;4.40;3.20;;;;;;;24.67;52.83;95996.13;5053076;28;20181;-70
2023/07/30 07:53:44;;;;;;;8.47;3.37;;;;;;;24.78;52.89;95986.91;5047611;28;20186;-69
2023/07/30 07:56:10;;;;;;;6.30;3.17;;;;;;;24.79;53.02;95993.13;5052472;28;20199;-71
2023/07/30 07:58:36;;;;;;;7.43;3.30;;;;;;;25.11;51.58;95993.16;5072867;28;20627;-70
2023/07/30 08:01:01;;;;;;;20.57;3.77;;;;;;;25.33;51.31;95985.47;5088225;28;20549;-70
2023/07/30 08:03:27;;;;;;;13.07;5.07;;;;;;;25.73;50.41;95984.56;5088660;28;20229;-71
2023/07/30 08:05:52;;;;;;;8.50;3.20;;;;;;;25.79;49.97;95985.69;5073348;28;20200;-71
2023/07/30 08:08:18;;;;;;;9.30;3.13;;;;;;;25.70;49.05;95984.91;5061308;28;20182;-70
2023/07/30 08:10:46;;;;;;;16.43;4.73;;;;;;;25.41;49.77;95982.75;5056357;28;20244;-70
2023/07/30 08:13:11;;;;;;;5.40;3.17;;;;;;;25.32;49.60;95981.94;5049298;28;20608;-71
2023/07/30 08:15:36;;;;;;;4.97;2.53;;;;;;;25.43;48.84;95978.03;5065854;28;20506;-70
2023/07/30 08:18:02;;;;;;;5.30;2.87;;;;;;;25.67;48.61;95977.16;5057217;28;20206;-71
2023/07/30 08:20:27;;;;;;;21.53;3.73;;;;;;;25.61;47.85;95975.19;5060467;28;20662;-71
2023/07/30 08:22:53;;;;;;;7.73;3.10;;;;;;;25.71;48.22;95973.13;5063056;28;20190;-70
2023/07/30 08:25:18;;;;;;;3.23;2.20;;;;;;;25.72;48.10;95969.41;5062240;28;20187;-71
2023/07/30 08:27:44;;;;;;;8.20;2.63;;;;;;;25.73;47.72;95975.66;5054951;28;20175;-70
2023/07/30 08:30:09;;;;;;;5.50;2.40;;;;;;;25.76;47.64;95967.25;5064535;28;20208;-71
2023/07/30 08:32:35;;;;;;;4.73;2.33;;;;;;;25.64;47.77;95974.00;5058293;28;20657;-70
2023/07/30 08:35:00;;;;;;;3.90;2.90;;;;;;;25.29;48.54;95974.19;5049505;28;20194;-71
2023/07/30 08:37:26;;;;;;;5.07;3.00;;;;;;;24.98;49.47;95960.59;5057632;28;20246;-72
2023/07/30 08:39:52;;;;;;;5.50;2.80;;;;;;;24.78;49.53;95981.56;5051677;28;20182;-71
2023/07/30 08:42:18;;;;;;;3.27;2.97;;;;;;;24.81;49.87;95970.47;5061535;28;20185;-73
2023/07/30 08:44:43;;;;;;;6.90;2.83;;;;;;;24.63;50.36;95973.28;5056908;28;20941;-71
2023/07/30 08:47:10;;;;;;;8.20;2.37;;;;;;;24.68;50.33;95976.31;5079015;28;20194;-71
2023/07/30 08:49:35;;;;;;;4.40;3.47;;;;;;;24.31;52.08;95987.44;5058889;28;20178;-73
2023/07/30 08:52:02;;;;;;;10.97;3.47;;;;;;;24.03;53.48;96014.47;5059770;28;20424;-72
2023/07/30 08:54:30;;;;;;;23.77;4.87;;;;;;;23.67;58.21;96003.03;5053343;28;20177;-71
2023/07/30 08:56:57;;;;;;;13.70;4.10;;;;;;;23.28;60.22;95983.84;5060947;28;20502;-71
2023/07/30 08:59:24;;;;;;;7.07;3.20;;;;;;;22.64;61.11;95988.44;5057091;28;20428;-72
2023/07/30 09:01:52;;;;;;;18.13;4.67;;;;;;;22.68;62.52;95990.66;5065469;28;20530;-74
2023/07/30 09:04:18;;;;;;;10.23;3.20;;;;;;;22.61;62.46;95986.94;5049930;28;20465;-70
2023/07/30 09:06:47;;;;;;;3.90;3.47;;;;;;;22.44;63.68;95991.28;5058770;28;20481;-71
2023/07/30 09:09:13;;;;;;;4.70;3.20;;;;;;;22.57;63.91;95997.06;5070210;28;20496;-71
2023/07/30 09:11:39;;;;;;;8.07;3.50;;;;;;;23.32;62.35;95995.94;5063610;28;20511;-72
2023/07/30 09:14:06;;;;;;;14.10;3.53;;;;;;;24.15;58.41;95988.22;5057422;28;20885;-72
2023/07/30 09:16:31;;;;;;;4.70;3.27;;;;;;;24.70;53.99;95984.22;5059731;28;20206;-72
2023/07/30 09:18:57;;;;;;;5.90;3.07;;;;;;;25.13;54.57;95988.47;5060482;28;20443;-72
2023/07/30 09:21:34;;;;;;;4.23;2.77;;;;;;;25.55;52.68;95978.53;5055060;28;20187;-72
2023/07/30 09:24:05;;;;;;;7.90;3.27;;;;;;;25.61;52.88;95977.88;5056269;28;20513;-72
2023/07/30 09:26:43;;;;;;;6.53;3.37;;;;;;;25.61;52.04;95971.63;5055575;28;20533;-73
2023/07/30 09:29:09;;;;;;;3.90;2.60;;;;;;;25.65;54.84;95973.81;5062321;28;20468;-72
2023/07/30 09:31:48;;;;;;;11.23;2.93;;;;;;;25.47;52.47;95975.88;5058148;28;20426;-72
2023/07/30 09:34:18;;;;;;;9.47;3.40;;;;;;;25.31;53.28;95971.34;5068650;28;20415;-72
2023/07/30 09:36:44;;;;;;;6.67;3.00;;;;;;;24.71;52.89;95977.84;5064209;28;20457;-72
2023/07/30 09:39:19;;;;;;;8.73;2.63;;;;;;;24.37;54.42;95984.09;5066552;28;20424;-71
2023/07/30 09:41:45;;;;;;;6.60;2.63;;;;;;;24.37;54.34;95981.41;5062031;28;20443;-72
2023/07/30 09:44:11;;;;;;;6.40;2.60;;;;;;;24.37;53.96;95983.25;5060591;28;20464;-71
2023/07/30 09:46:48;;;;;;;21.10;3.67;;;;;;;24.48;54.11;95983.84;5064921;28;20795;-71
2023/07/30 09:49:15;;;;;;;10.83;3.17;;;;;;;24.76;53.59;95990.75;5058713;28;20175;-71
2023/07/30 09:51:40;;;;;;;10.27;3.00;;;;;;;24.95;53.25;95981.56;5063808;28;20859;-72
2023/07/30 09:54:11;;;;;;;17.67;3.87;;;;;;;24.71;52.70;95986.75;5062748;28;20429;-71
2023/07/30 09:56:38;;;;;;;12.03;3.10;;;;;;;24.67;51.98;95990.75;5062060;28;20226;-71
2023/07/30 09:59:08;;;;;;;7.23;2.67;;;;;;;24.35;52.71;95977.22;5051577;28;20516;-71
2023/07/30 10:01:39;;;;;;;9.80;3.13;;;;;;;24.28;52.84;95977.88;5055351;28;20436;-73
2023/07/30 10:04:08;;;;;;;22.13;4.53;;;;;;;24.29;52.17;95984.91;5057804;28;20454;-72
2023/07/30 10:06:42;;;;;;;12.73;3.10;;;;;;;24.22;52.97;95980.38;5052934;28;20445;-72
2023/07/30 10:09:10;;;;;;;17.63;3.93;;;;;;;24.36;53.06;95976.22;5056334;28;20527;-70
2023/07/30 10:11:37;;;;;;;10.50;3.23;;;;;;;24.50;52.30;95971.09;5059700;28;20417;-72
2023/07/30 10:14:03;;;;;;;11.73;3.50;;;;;;;25.03;51.50;95978.88;5056460;28;20474;-72
2023/07/30 10:16:29;;;;;;;4.00;2.60;;;;;;;25.10;49.84;95967.28;5059485;28;20445;-70
2023/07/30 10:18:58;;;;;;;8.67;2.70;;;;;;;25.28;49.04;95972.53;5061181;28;20517;-70
2023/07/30 10:21:26;;;;;;;5.00;2.40;;;;;;;25.33;48.00;95966.66;5060872;28;20424;-72
2023/07/30 10:24:04;;;;;;;7.77;3.10;;;;;;;25.15;45.88;95972.16;5058955;28;20534;-70
2023/07/30 10:26:35;;;;;;;2.83;2.40;;;;;;;25.02;45.96;95961.94;5064627;28;20440;-71
2023/07/30 10:29:14;;;;;;;8.57;2.90;;;;;;;24.83;46.83;95959.59;5061920;28;20421;-71
2023/07/30 10:31:47;;;;;;;6.93;2.90;;;;;;;24.65;49.21;95955.19;5066332;28;20464;-71
2023/07/30 10:34:13;;;;;;;20.47;3.73;;;;;;;24.56;48.13;95968.75;5050951;28;20950;-70
2023/07/30 10:36:56;;;;;;;9.83;2.67;;;;;;;24.36;48.62;95976.22;5057831;28;20436;-70
2023/07/30 10:39:28;;;;;;;2.60;2.10;;;;;;;24.26;48.94;95982.56;5059596;28;20167;-71
2023/07/30 10:41:58;;;;;;;5.43;2.93;;;;;;;24.08;49.65;95982.66;5049790;28;20431;-71
2023/07/30 10:44:25;;;;;;;2.83;2.17;;;;;;;23.90;50.23;95992.63;5054241;28;20465;-70
2023/07/30 10:47:10;;;;;;;11.77;3.20;;;;;;;23.92;51.54;95989.78;5060301;28;20421;-70
2023/07/30 10:49:47;;;;;;;5.40;2.80;;;;;;;24.25;51.11;95977.34;5055326;28;20421;-70
2023/07/30 10:52:12;;;;;;;3.37;2.37;;;;;;;24.53;48.90;95988.72;5057277;28;20425;-70
2023/07/30 10:54:38;;;;;;;9.93;2.80;;;;;;;24.13;49.04;95984.84;5056284;28;20463;-71
2023/07/30 10:57:04;;;;;;;3.37;2.20;;;;;;;23.91;49.10;95988.97;5058497;28;20485;-70
2023/07/30 10:59:37;;;;;;;4.37;2.30;;;;;;;23.76;49.79;95993.22;5059104;28;20268;-71
2023/07/30 11:02:03;;;;;;;10.57;3.03;;;;;;;23.66;50.15;95999.50;5069905;28;20312;-70
2023/07/30 11:04:28;;;;;;;4.97;2.30;;;;;;;23.65;49.68;95991.63;5070179;28;20529;-70
2023/07/30 11:06:54;;;;;;;4.30;2.80;;;;;;;23.64;48.97;95992.63;5057637;28;20166;-70
2023/07/30 11:09:21;;;;;;;6.00;2.60;;;;;;;23.48;48.83;96003.22;5050755;28;20186;-70
2023/07/30 11:11:47;;;;;;;6.70;2.70;;;;;;;23.32;49.18;96004.81;5059069;28;20194;-70
2023/07/30 11:14:20;;;;;;;5.50;2.53;;;;;;;23.13;49.61;96007.66;5056797;28;20956;-70
2023/07/30 11:17:00;;;;;;;4.90;2.23;;;;;;;23.13;51.67;96013.03;5058406;28;20448;-69
2023/07/30 11:19:29;;;;;;;4.53;2.40;;;;;;;23.32;49.19;96028.06;5067173;28;20430;-70
2023/07/30 11:21:57;;;;;;;9.00;3.27;;;;;;;23.38;48.72;96038.97;5059033;28;20420;-69
2023/07/30 11:24:33;;;;;;;5.53;2.57;;;;;;;23.66;48.56;96038.84;5058499;28;20492;-70
2023/07/30 11:27:00;;;;;;;3.53;2.00;;;;;;;23.69;44.93;96035.84;5059153;28;20421;-70
2023/07/30 11:29:26;;;;;;;5.83;2.20;;;;;;;23.73;44.89;96028.34;5056685;28;20784;-70